Time;durP1;ratioP1;P1;durP2;ratioP2;P2;SDS_P1;SDS_P2;PMS_P1;PMS_P2;Temp;Humidity;BMP_temperature;BMP_pressure;BME280_temperature;BME280_humidity;BME280_pressure;Samples;Min_cycle;Max_cycle;Signal;HPM_P1;HPM_P2
2023/12/25 00:01:42;;;;;;;2.00;0.57;;;10.20;99.90;;;;;;4215514;28;20208;-73
2023/12/25 00:03:44;;;;;;;2.17;0.50;;;10.20;99.90;;;;;;4213698;28;20772;-73
2023/12/25 00:05:46;;;;;;;1.80;0.60;;;10.30;99.90;;;;;;4217426;28;20208;-73
2023/12/25 00:07:48;;;;;;;0.40;0.40;;;10.20;99.90;;;;;;4211976;28;20232;-73
2023/12/25 00:09:51;;;;;;;0.70;0.40;;;10.30;99.90;;;;;;4215492;28;20199;-75
2023/12/25 00:11:53;;;;;;;2.10;0.50;;;10.30;99.90;;;;;;4213501;28;20935;-75
2023/12/25 00:13:55;;;;;;;0.77;0.50;;;10.20;99.90;;;;;;4215957;28;20227;-76
2023/12/25 00:15:57;;;;;;;0.80;0.60;;;10.20;99.90;;;;;;4211675;28;20205;-75
2023/12/25 00:17:58;;;;;;;1.93;0.47;;;10.20;99.90;;;;;;4210791;28;20219;-76
2023/12/25 00:20:00;;;;;;;1.20;0.47;;;10.20;99.90;;;;;;4212245;28;20227;-74
2023/12/25 00:22:02;;;;;;;0.63;0.40;;;10.20;99.90;;;;;;4211634;28;20236;-74
2023/12/25 00:24:04;;;;;;;1.17;0.40;;;10.30;99.90;;;;;;4212989;28;20208;-75
2023/12/25 00:26:08;;;;;;;0.63;0.53;;;10.20;99.90;;;;;;4211199;28;20201;-73
2023/12/25 00:28:10;;;;;;;0.90;0.60;;;10.30;99.90;;;;;;4214523;28;20209;-73
2023/12/25 00:30:12;;;;;;;0.50;0.40;;;10.30;99.90;;;;;;4214872;28;20213;-74
2023/12/25 00:32:13;;;;;;;0.77;0.50;;;10.30;99.90;;;;;;4211911;28;20228;-73
2023/12/25 00:34:16;;;;;;;0.70;0.50;;;10.30;99.90;;;;;;4212575;28;20258;-73
2023/12/25 00:36:17;;;;;;;1.27;0.40;;;10.30;99.90;;;;;;4212707;28;20258;-76
2023/12/25 00:38:18;;;;;;;0.50;0.30;;;10.30;99.90;;;;;;4218364;28;20208;-73
2023/12/25 00:40:20;;;;;;;0.30;0.30;;;10.30;99.90;;;;;;4214131;28;20270;-74
2023/12/25 00:42:23;;;;;;;4.63;0.50;;;10.40;99.90;;;;;;4203719;28;20232;-75
2023/12/25 00:44:25;;;;;;;1.30;0.43;;;10.40;99.90;;;;;;4214039;28;20200;-74
2023/12/25 00:46:27;;;;;;;1.43;0.50;;;10.40;99.90;;;;;;4213905;28;20725;-75
2023/12/25 00:48:29;;;;;;;1.97;0.50;;;10.40;99.90;;;;;;4215454;28;20201;-77
2023/12/25 00:50:31;;;;;;;0.50;0.33;;;10.30;99.90;;;;;;4205213;28;20259;-77
2023/12/25 00:52:33;;;;;;;1.53;0.37;;;10.40;99.90;;;;;;4217308;28;20281;-79
2023/12/25 00:54:36;;;;;;;0.43;0.30;;;10.40;99.90;;;;;;4222643;28;20924;-79
2023/12/25 00:56:38;;;;;;;1.40;0.37;;;10.40;99.90;;;;;;4223226;28;20243;-73
2023/12/25 00:58:41;;;;;;;0.50;0.40;;;10.40;99.90;;;;;;4211071;28;20209;-74
2023/12/25 01:00:42;;;;;;;0.60;0.40;;;10.40;99.90;;;;;;4216466;28;20746;-73
2023/12/25 01:02:44;;;;;;;0.50;0.27;;;10.50;99.90;;;;;;4217286;28;20213;-73
2023/12/25 01:04:46;;;;;;;3.43;0.40;;;10.40;99.90;;;;;;4213707;28;20205;-73
2023/12/25 01:06:48;;;;;;;0.67;0.30;;;10.50;99.90;;;;;;4214194;28;20589;-74
2023/12/25 01:08:50;;;;;;;1.80;0.40;;;10.50;99.90;;;;;;4213449;28;20216;-75
2023/12/25 01:10:52;;;;;;;0.70;0.63;;;10.50;99.90;;;;;;4214737;28;20931;-76
2023/12/25 01:12:54;;;;;;;0.20;0.20;;;10.50;99.90;;;;;;4213344;28;20301;-79
2023/12/25 01:14:57;;;;;;;1.50;0.40;;;10.40;99.90;;;;;;4212570;28;20209;-75
2023/12/25 01:17:00;;;;;;;0.50;0.30;;;10.40;99.90;;;;;;4213468;28;20212;-75
2023/12/25 01:19:02;;;;;;;0.43;0.33;;;10.40;99.90;;;;;;4218766;28;20240;-79
2023/12/25 01:21:03;;;;;;;0.20;0.20;;;10.40;99.90;;;;;;4213996;28;20225;-76
2023/12/25 01:23:05;;;;;;;0.27;0.20;;;10.40;99.90;;;;;;4213002;28;20273;-73
2023/12/25 01:25:08;;;;;;;0.47;0.30;;;10.50;99.90;;;;;;4218193;28;20211;-74
2023/12/25 01:27:10;;;;;;;0.67;0.30;;;10.50;99.90;;;;;;4215350;28;20216;-73
2023/12/25 01:29:11;;;;;;;0.10;0.10;;;10.40;99.90;;;;;;4216116;28;20278;-74
2023/12/25 01:31:14;;;;;;;0.60;0.30;;;10.50;99.90;;;;;;4214283;28;20205;-73
2023/12/25 01:33:16;;;;;;;0.97;0.40;;;10.40;99.90;;;;;;4216297;28;20228;-74
2023/12/25 01:35:16;;;;;;;1.13;0.20;;;10.50;99.90;;;;;;4222263;28;20274;-73
2023/12/25 01:37:19;;;;;;;1.23;0.30;;;10.50;99.90;;;;;;4214701;28;20664;-76
2023/12/25 01:39:21;;;;;;;0.50;0.30;;;10.50;99.90;;;;;;4217735;28;20216;-73
2023/12/25 01:41:23;;;;;;;0.43;0.23;;;10.60;99.90;;;;;;4213175;28;20719;-75
2023/12/25 01:43:24;;;;;;;0.53;0.43;;;10.50;99.90;;;;;;4213727;28;20221;-76
2023/12/25 01:45:26;;;;;;;0.23;0.23;;;10.50;99.90;;;;;;4225586;28;20265;-75
2023/12/25 01:47:30;;;;;;;0.87;0.30;;;10.50;99.90;;;;;;4219726;28;20209;-76
2023/12/25 01:49:32;;;;;;;0.50;0.20;;;10.40;99.90;;;;;;4209074;28;20262;-76
2023/12/25 01:51:35;;;;;;;0.30;0.30;;;10.50;99.90;;;;;;4217718;28;20197;-75
2023/12/25 01:53:37;;;;;;;0.23;0.23;;;10.50;99.90;;;;;;4213319;28;20209;-75
2023/12/25 01:55:38;;;;;;;1.50;0.67;;;10.60;99.90;;;;;;4212300;28;20692;-76
2023/12/25 01:57:41;;;;;;;1.53;0.30;;;10.60;99.90;;;;;;4212419;28;20234;-76
2023/12/25 01:59:43;;;;;;;1.83;0.40;;;10.60;99.90;;;;;;4216844;28;20230;-74
2023/12/25 02:01:44;;;;;;;0.43;0.30;;;10.60;99.90;;;;;;4212519;28;20275;-73
2023/12/25 02:03:48;;;;;;;1.13;0.40;;;10.50;99.90;;;;;;4218940;28;20219;-76
2023/12/25 02:05:51;;;;;;;1.77;0.43;;;10.50;99.90;;;;;;4211202;28;20216;-73
2023/12/25 02:07:52;;;;;;;0.20;0.20;;;10.50;99.90;;;;;;4211557;28;20299;-74
2023/12/25 02:09:54;;;;;;;0.30;0.30;;;10.50;99.90;;;;;;4211769;28;20272;-74
2023/12/25 02:11:57;;;;;;;0.43;0.27;;;10.40;99.90;;;;;;4212681;28;21033;-73
2023/12/25 02:14:01;;;;;;;1.43;0.30;;;10.50;99.90;;;;;;4212478;28;20578;-73
2023/12/25 02:16:03;;;;;;;0.87;0.20;;;10.50;99.90;;;;;;4211568;28;20205;-73
2023/12/25 02:18:05;;;;;;;0.40;0.40;;;10.50;99.90;;;;;;4211806;28;20224;-77
2023/12/25 02:20:10;;;;;;;0.20;0.20;;;10.60;99.90;;;;;;4212002;28;20205;-76
2023/12/25 02:22:13;;;;;;;0.77;0.27;;;10.50;99.90;;;;;;4212326;28;20237;-74
2023/12/25 02:24:23;;;;;;;0.30;0.30;;;10.60;99.90;;;;;;4212659;28;20911;-73
2023/12/25 02:26:25;;;;;;;1.37;0.30;;;10.60;99.90;;;;;;4215250;28;20254;-74
2023/12/25 02:28:27;;;;;;;0.30;0.30;;;10.60;99.90;;;;;;4216930;28;20241;-77
2023/12/25 02:30:29;;;;;;;0.27;0.13;;;10.70;99.90;;;;;;4220900;28;20208;-75
2023/12/25 02:32:31;;;;;;;0.37;0.30;;;10.70;99.90;;;;;;4214468;28;20285;-76
2023/12/25 02:34:33;;;;;;;0.53;0.30;;;10.80;99.90;;;;;;4212796;28;20723;-74
2023/12/25 02:36:35;;;;;;;0.80;0.40;;;10.70;99.90;;;;;;4200656;28;20256;-74
2023/12/25 02:38:36;;;;;;;2.20;0.40;;;10.80;99.90;;;;;;4213147;28;20612;-73
2023/12/25 02:40:39;;;;;;;1.13;0.30;;;10.80;99.90;;;;;;4208407;28;20278;-76
2023/12/25 02:42:45;;;;;;;0.20;0.20;;;10.80;99.90;;;;;;4219899;28;20256;-76
2023/12/25 02:44:47;;;;;;;1.20;0.20;;;10.80;99.90;;;;;;4210994;28;20608;-73
2023/12/25 02:46:49;;;;;;;0.47;0.30;;;10.80;99.90;;;;;;4216607;28;20258;-74
2023/12/25 02:48:51;;;;;;;0.80;0.47;;;10.80;99.90;;;;;;4216782;28;20245;-73
2023/12/25 02:50:53;;;;;;;1.57;0.40;;;10.70;99.90;;;;;;4218175;28;20278;-78
2023/12/25 02:52:55;;;;;;;0.30;0.30;;;10.70;99.90;;;;;;4212699;28;20236;-74
2023/12/25 02:54:58;;;;;;;0.33;0.20;;;10.70;99.90;;;;;;4215683;28;20881;-73
2023/12/25 02:56:58;;;;;;;0.30;0.30;;;10.70;99.90;;;;;;4216032;28;20212;-74
2023/12/25 02:59:02;;;;;;;0.67;0.30;;;10.80;99.90;;;;;;4214796;28;20204;-77
2023/12/25 03:01:03;;;;;;;1.03;0.30;;;10.80;99.90;;;;;;4220466;28;20242;-74
2023/12/25 03:03:05;;;;;;;0.47;0.27;;;10.80;99.90;;;;;;4216631;28;20231;-76
2023/12/25 03:05:08;;;;;;;0.30;0.30;;;10.80;99.90;;;;;;4211696;28;20261;-74
2023/12/25 03:07:10;;;;;;;0.20;0.20;;;10.80;99.90;;;;;;4221773;28;20205;-74
2023/12/25 03:09:12;;;;;;;1.03;0.33;;;10.80;99.90;;;;;;4212113;28;20659;-73
2023/12/25 03:11:14;;;;;;;0.67;0.30;;;10.80;99.90;;;;;;4214574;28;20197;-73
2023/12/25 03:13:15;;;;;;;0.20;0.20;;;10.80;99.90;;;;;;4212992;28;20285;-74
2023/12/25 03:15:19;;;;;;;1.50;0.30;;;10.80;99.90;;;;;;4220183;28;20692;-75
2023/12/25 03:17:20;;;;;;;0.60;0.27;;;10.90;99.90;;;;;;4213600;28;20251;-77
2023/12/25 03:19:22;;;;;;;0.20;0.20;;;10.90;99.90;;;;;;4210550;28;20293;-74
2023/12/25 03:21:23;;;;;;;0.60;0.20;;;10.90;99.90;;;;;;4216954;28;20287;-75
2023/12/25 03:23:25;;;;;;;0.70;0.30;;;10.80;99.90;;;;;;4213556;28;20267;-74
2023/12/25 03:25:27;;;;;;;0.30;0.30;;;10.90;99.90;;;;;;4214528;28;20224;-75
2023/12/25 03:27:29;;;;;;;1.30;0.23;;;10.90;99.90;;;;;;4200942;28;20587;-77
2023/12/25 03:29:31;;;;;;;1.60;0.40;;;10.90;99.90;;;;;;4199190;28;20221;-77
2023/12/25 03:31:33;;;;;;;1.10;0.33;;;10.80;99.90;;;;;;4204426;28;20266;-77
2023/12/25 03:33:36;;;;;;;0.47;0.20;;;10.80;99.90;;;;;;4196626;28;20211;-76
2023/12/25 03:35:38;;;;;;;0.53;0.20;;;10.80;99.90;;;;;;4209580;28;20212;-74
2023/12/25 03:37:39;;;;;;;0.50;0.20;;;10.80;99.90;;;;;;4212405;28;20664;-75
2023/12/25 03:39:40;;;;;;;0.30;0.27;;;10.80;99.90;;;;;;4205178;28;20714;-75
2023/12/25 03:41:42;;;;;;;1.47;0.40;;;10.80;99.90;;;;;;4215012;28;20217;-73
2023/12/25 03:43:43;;;;;;;0.47;0.43;;;10.70;99.90;;;;;;4211826;28;20208;-76
2023/12/25 03:45:45;;;;;;;0.47;0.30;;;10.70;99.90;;;;;;4219138;28;20205;-74
2023/12/25 03:47:47;;;;;;;0.30;0.30;;;10.60;99.90;;;;;;4215427;28;20246;-74
2023/12/25 03:49:49;;;;;;;1.10;0.30;;;10.60;99.90;;;;;;4212392;28;20254;-73
2023/12/25 03:51:51;;;;;;;1.03;0.30;;;10.60;99.90;;;;;;4210303;28;20270;-74
2023/12/25 03:53:53;;;;;;;0.93;0.40;;;10.70;99.90;;;;;;4210265;28;20708;-75
2023/12/25 03:55:55;;;;;;;0.60;0.40;;;10.60;99.90;;;;;;4211610;28;20709;-75
2023/12/25 03:57:57;;;;;;;1.67;0.60;;;10.60;99.90;;;;;;4189066;28;20207;-75
2023/12/25 03:59:59;;;;;;;0.50;0.20;;;10.60;99.90;;;;;;4209713;28;20253;-74
2023/12/25 04:02:01;;;;;;;1.90;0.40;;;10.70;99.90;;;;;;4210567;28;20325;-75
2023/12/25 04:04:04;;;;;;;2.07;0.20;;;10.70;99.90;;;;;;4205861;28;20807;-74
2023/12/25 04:06:05;;;;;;;0.20;0.20;;;10.70;99.90;;;;;;4218848;28;20208;-74
2023/12/25 04:08:07;;;;;;;1.70;0.30;;;10.70;99.90;;;;;;4217662;28;20205;-73
2023/12/25 04:10:10;;;;;;;0.40;0.30;;;10.70;99.90;;;;;;4217283;28;20216;-74
2023/12/25 04:12:12;;;;;;;0.53;0.30;;;10.80;99.90;;;;;;4215403;28;20270;-75
2023/12/25 04:14:14;;;;;;;0.47;0.27;;;10.80;99.90;;;;;;4218319;28;20211;-76
2023/12/25 04:16:20;;;;;;;0.70;0.20;;;10.70;99.90;;;;;;4215000;28;20205;-77
2023/12/25 04:18:24;;;;;;;0.57;0.40;;;10.70;99.90;;;;;;4210722;28;20306;-76
2023/12/25 04:20:27;;;;;;;1.13;0.30;;;10.70;99.90;;;;;;4219748;28;20228;-78
2023/12/25 04:22:29;;;;;;;0.20;0.20;;;10.70;99.90;;;;;;4216866;28;20232;-74
2023/12/25 04:24:31;;;;;;;0.27;0.20;;;10.80;99.90;;;;;;4225136;28;20667;-75
2023/12/25 04:26:32;;;;;;;0.37;0.23;;;10.80;99.90;;;;;;4217697;28;20209;-76
2023/12/25 04:28:34;;;;;;;0.40;0.30;;;10.80;99.90;;;;;;4214435;28;20199;-75
2023/12/25 04:30:36;;;;;;;0.40;0.30;;;10.90;99.90;;;;;;4214261;28;20208;-73
2023/12/25 04:32:38;;;;;;;0.20;0.20;;;11.00;99.90;;;;;;4214140;28;20273;-73
2023/12/25 04:34:39;;;;;;;1.17;0.30;;;10.90;99.90;;;;;;4213797;28;20205;-74
2023/12/25 04:36:43;;;;;;;0.30;0.20;;;10.90;99.90;;;;;;4218172;28;20222;-74
2023/12/25 04:38:45;;;;;;;0.10;0.10;;;10.90;99.90;;;;;;4221606;28;20212;-74
2023/12/25 04:40:47;;;;;;;0.20;0.20;;;10.90;99.90;;;;;;4218932;28;20689;-75
2023/12/25 04:42:48;;;;;;;0.30;0.20;;;10.90;99.90;;;;;;4214619;28;20229;-77
2023/12/25 04:44:50;;;;;;;0.33;0.30;;;10.90;99.90;;;;;;4218330;28;20265;-76
2023/12/25 04:46:52;;;;;;;0.17;0.17;;;10.90;99.90;;;;;;4220764;28;20205;-74
2023/12/25 04:48:54;;;;;;;0.10;0.10;;;10.90;99.90;;;;;;4218852;28;20209;-74
2023/12/25 04:50:58;;;;;;;0.10;0.10;;;10.90;99.90;;;;;;4214750;28;20212;-74
2023/12/25 04:53:01;;;;;;;0.20;0.20;;;10.90;99.90;;;;;;4218503;28;20731;-74
2023/12/25 04:55:03;;;;;;;0.20;0.20;;;10.90;99.90;;;;;;4214981;28;20259;-78
2023/12/25 04:57:04;;;;;;;0.63;0.20;;;10.90;99.90;;;;;;4212251;28;20212;-75
2023/12/25 04:59:06;;;;;;;0.20;0.10;;;10.90;99.90;;;;;;4216212;28;20574;-74
2023/12/25 05:01:08;;;;;;;0.13;0.13;;;10.90;99.90;;;;;;4213849;28;20619;-73
2023/12/25 05:03:10;;;;;;;0.57;0.20;;;10.90;99.90;;;;;;4218146;28;20704;-74
2023/12/25 05:05:12;;;;;;;0.33;0.20;;;10.80;99.90;;;;;;4212673;28;20211;-73
2023/12/25 05:07:14;;;;;;;0.57;0.13;;;10.80;99.90;;;;;;4222756;28;20209;-74
2023/12/25 05:09:18;;;;;;;0.30;0.30;;;10.80;99.90;;;;;;4217459;28;20274;-75
2023/12/25 05:11:20;;;;;;;0.73;0.20;;;10.70;99.90;;;;;;4218874;28;20200;-74
2023/12/25 05:13:21;;;;;;;0.40;0.10;;;10.70;99.90;;;;;;4209937;28;20235;-74
2023/12/25 05:15:23;;;;;;;0.23;0.20;;;10.70;99.90;;;;;;4220550;28;20197;-74
2023/12/25 05:17:25;;;;;;;0.20;0.20;;;10.70;99.90;;;;;;4214345;28;20303;-73
2023/12/25 05:19:27;;;;;;;2.27;0.20;;;10.70;99.90;;;;;;4217849;28;20660;-74
2023/12/25 05:21:29;;;;;;;0.20;0.10;;;10.70;99.90;;;;;;4219945;28;20796;-73
2023/12/25 05:23:30;;;;;;;0.10;0.10;;;10.90;99.90;;;;;;4216780;28;20197;-74
2023/12/25 05:25:34;;;;;;;0.20;0.10;;;10.80;99.90;;;;;;4213207;28;20651;-74
2023/12/25 05:27:36;;;;;;;0.30;0.20;;;10.80;99.90;;;;;;4214354;28;20209;-76
2023/12/25 05:29:37;;;;;;;0.63;0.20;;;10.80;99.90;;;;;;4213273;28;20204;-77
2023/12/25 05:31:39;;;;;;;0.10;0.10;;;10.90;99.90;;;;;;4213753;28;20203;-73
2023/12/25 05:33:41;;;;;;;0.30;0.30;;;10.90;99.90;;;;;;4212820;28;20213;-73
2023/12/25 05:35:43;;;;;;;1.40;0.20;;;10.90;99.90;;;;;;4214080;28;20219;-73
2023/12/25 05:37:45;;;;;;;0.10;0.07;;;10.90;99.90;;;;;;4215686;28;20216;-76
2023/12/25 05:39:45;;;;;;;0.20;0.20;;;10.90;99.90;;;;;;4214177;28;20212;-73
2023/12/25 05:41:50;;;;;;;0.23;0.20;;;10.90;99.90;;;;;;4216739;28;20262;-73
2023/12/25 05:43:52;;;;;;;0.53;0.20;;;10.90;99.90;;;;;;4210421;28;20213;-76
2023/12/25 05:45:54;;;;;;;0.50;0.30;;;11.00;99.90;;;;;;4213626;28;20706;-78
2023/12/25 05:47:56;;;;;;;0.20;0.20;;;11.00;99.90;;;;;;4216911;28;20291;-79
2023/12/25 05:49:58;;;;;;;0.10;0.10;;;10.90;99.90;;;;;;4215365;28;20224;-79
2023/12/25 05:51:59;;;;;;;0.20;0.20;;;11.00;99.90;;;;;;4213515;28;20851;-73
2023/12/25 05:54:01;;;;;;;1.43;0.20;;;11.00;99.90;;;;;;4220569;28;20262;-74
2023/12/25 05:56:03;;;;;;;0.97;0.40;;;11.00;99.90;;;;;;4217452;28;20201;-76
2023/12/25 05:58:07;;;;;;;1.80;0.40;;;11.00;99.90;;;;;;4219534;28;20735;-74
2023/12/25 06:00:08;;;;;;;0.37;0.30;;;11.10;99.90;;;;;;4212733;28;20255;-74
2023/12/25 06:02:11;;;;;;;2.20;0.70;;;11.10;99.90;;;;;;4219981;28;20228;-74
2023/12/25 06:04:12;;;;;;;0.70;0.30;;;11.10;99.90;;;;;;4213574;28;20255;-74
2023/12/25 06:06:14;;;;;;;2.07;1.20;;;11.10;99.90;;;;;;4214806;28;20199;-73
2023/12/25 06:08:15;;;;;;;4.10;1.60;;;11.10;99.90;;;;;;4214997;28;20259;-76
2023/12/25 06:10:17;;;;;;;0.97;0.40;;;11.10;99.90;;;;;;4213924;28;20228;-74
2023/12/25 06:12:18;;;;;;;0.10;0.10;;;11.10;99.90;;;;;;4212402;28;20274;-74
2023/12/25 06:14:21;;;;;;;0.20;0.20;;;11.10;99.90;;;;;;4221304;28;20209;-74
2023/12/25 06:16:23;;;;;;;0.20;0.20;;;11.10;99.90;;;;;;4192387;28;20261;-73
2023/12/25 06:18:25;;;;;;;0.77;0.40;;;11.10;99.90;;;;;;4215603;28;20252;-74
2023/12/25 06:20:27;;;;;;;0.20;0.20;;;11.10;99.90;;;;;;4213832;28;20197;-74
2023/12/25 06:22:29;;;;;;;0.30;0.30;;;11.10;99.90;;;;;;4216714;28;20258;-74
2023/12/25 06:24:32;;;;;;;0.50;0.30;;;11.10;99.90;;;;;;4214493;28;20221;-74
2023/12/25 06:26:34;;;;;;;1.07;0.23;;;11.20;99.90;;;;;;4213842;28;20213;-74
2023/12/25 06:28:35;;;;;;;0.70;0.30;;;11.20;99.90;;;;;;4218564;28;20201;-74
2023/12/25 06:30:38;;;;;;;1.30;0.40;;;11.20;99.90;;;;;;4214716;28;20688;-75
2023/12/25 06:32:41;;;;;;;1.73;0.40;;;11.30;99.90;;;;;;4215244;28;20236;-76
2023/12/25 06:34:43;;;;;;;1.20;0.60;;;11.20;99.90;;;;;;4213967;28;20201;-74
2023/12/25 06:36:45;;;;;;;0.30;0.30;;;11.20;99.90;;;;;;4212312;28;20227;-75
2023/12/25 06:38:47;;;;;;;1.03;0.60;;;11.30;99.90;;;;;;4215898;28;20261;-76
2023/12/25 06:40:49;;;;;;;0.40;0.37;;;11.20;99.90;;;;;;4211844;28;20205;-74
2023/12/25 06:42:51;;;;;;;0.30;0.20;;;11.20;99.90;;;;;;4212637;28;20233;-74
2023/12/25 06:44:52;;;;;;;0.53;0.20;;;11.20;99.90;;;;;;4217338;28;20208;-74
2023/12/25 06:46:56;;;;;;;0.50;0.40;;;11.30;99.90;;;;;;4219193;28;20205;-74
2023/12/25 06:48:58;;;;;;;1.00;0.63;;;11.30;99.90;;;;;;4216992;28;20330;-74
2023/12/25 06:50:59;;;;;;;1.07;0.30;;;11.30;99.90;;;;;;4213816;28;20198;-75
2023/12/25 06:53:02;;;;;;;1.23;0.60;;;11.30;99.90;;;;;;4211598;28;20229;-76
2023/12/25 06:55:04;;;;;;;0.30;0.20;;;11.30;99.90;;;;;;4212047;28;20212;-74
2023/12/25 06:57:06;;;;;;;0.20;0.20;;;11.30;99.90;;;;;;4215572;28;20262;-74
2023/12/25 06:59:08;;;;;;;0.80;0.30;;;11.30;99.90;;;;;;4196271;28;20231;-74
2023/12/25 07:01:10;;;;;;;0.20;0.20;;;11.30;99.90;;;;;;4218728;28;20687;-75
2023/12/25 07:03:12;;;;;;;0.80;0.70;;;11.20;99.90;;;;;;4211797;28;20237;-73
2023/12/25 07:05:14;;;;;;;1.03;0.40;;;11.20;99.90;;;;;;4211607;28;20210;-74
2023/12/25 07:07:16;;;;;;;0.40;0.40;;;11.20;99.90;;;;;;4210702;28;20206;-76
2023/12/25 07:09:19;;;;;;;2.13;0.80;;;11.20;99.90;;;;;;4211731;28;20341;-75
2023/12/25 07:11:21;;;;;;;0.97;0.30;;;11.10;99.90;;;;;;4211836;28;20300;-74
2023/12/25 07:13:23;;;;;;;0.80;0.50;;;11.10;99.90;;;;;;4210091;28;20217;-74
2023/12/25 07:15:24;;;;;;;2.83;0.40;;;11.00;99.90;;;;;;4209189;28;20238;-76
2023/12/25 07:17:26;;;;;;;1.10;0.60;;;11.00;99.90;;;;;;4211440;28;20205;-74
2023/12/25 07:19:29;;;;;;;4.87;1.40;;;10.90;99.90;;;;;;4211664;28;20212;-75
2023/12/25 07:21:31;;;;;;;1.50;1.00;;;10.90;99.90;;;;;;4210353;28;20220;-76
2023/12/25 07:23:33;;;;;;;1.83;0.80;;;10.80;99.90;;;;;;4212489;28;20243;-74
2023/12/25 07:25:34;;;;;;;1.30;0.80;;;10.90;99.90;;;;;;4217173;28;20231;-75
2023/12/25 07:27:36;;;;;;;2.80;1.00;;;10.60;99.90;;;;;;4212784;28;20213;-75
2023/12/25 07:29:38;;;;;;;0.87;0.63;;;10.60;99.90;;;;;;4210426;28;20285;-76
2023/12/25 07:31:41;;;;;;;1.20;0.70;;;10.60;99.90;;;;;;4211088;28;20277;-74
2023/12/25 07:33:43;;;;;;;0.60;0.50;;;10.50;99.90;;;;;;4209015;28;20274;-75
2023/12/25 07:35:47;;;;;;;1.03;0.43;;;10.50;99.90;;;;;;4211239;28;20266;-75
2023/12/25 07:37:48;;;;;;;0.47;0.47;;;10.40;99.90;;;;;;4211586;28;20727;-76
2023/12/25 07:39:50;;;;;;;0.93;0.50;;;10.40;99.90;;;;;;4212304;28;20569;-75
2023/12/25 07:41:52;;;;;;;0.73;0.40;;;10.40;99.90;;;;;;4214565;28;20232;-75
2023/12/25 07:43:58;;;;;;;0.40;0.40;;;10.30;99.90;;;;;;4213065;28;20208;-76
2023/12/25 07:46:00;;;;;;;0.80;0.50;;;10.30;99.90;;;;;;4208842;28;20208;-76
2023/12/25 07:48:02;;;;;;;0.73;0.50;;;10.20;99.90;;;;;;4224539;28;20246;-75
2023/12/25 07:50:04;;;;;;;1.33;0.63;;;10.20;99.90;;;;;;4217340;28;20216;-76
2023/12/25 07:52:08;;;;;;;0.57;0.50;;;10.10;99.90;;;;;;4217433;28;20713;-75
2023/12/25 07:54:10;;;;;;;1.10;0.40;;;10.10;99.90;;;;;;4219241;28;20600;-75
2023/12/25 07:56:11;;;;;;;0.40;0.40;;;10.10;99.90;;;;;;4215789;28;20224;-75
2023/12/25 07:58:14;;;;;;;0.87;0.60;;;10.00;99.90;;;;;;4214208;28;20567;-75
2023/12/25 08:00:17;;;;;;;0.40;0.40;;;10.00;99.90;;;;;;4213419;28;20287;-76
2023/12/25 08:02:18;;;;;;;1.43;0.60;;;9.90;99.90;;;;;;4213919;28;20270;-75
2023/12/25 08:04:19;;;;;;;0.73;0.60;;;9.90;99.90;;;;;;4214273;28;20212;-75
2023/12/25 08:06:22;;;;;;;0.60;0.50;;;9.90;99.90;;;;;;4213588;28;20265;-76
2023/12/25 08:08:25;;;;;;;2.43;0.70;;;9.90;99.90;;;;;;4213875;28;20215;-75
2023/12/25 08:10:26;;;;;;;0.80;0.63;;;9.90;99.90;;;;;;4213858;28;20209;-76
2023/12/25 08:12:28;;;;;;;0.87;0.60;;;9.90;99.90;;;;;;4216745;28;20269;-75
2023/12/25 08:14:30;;;;;;;1.50;0.70;;;9.90;99.90;;;;;;4217279;28;20213;-75
2023/12/25 08:16:32;;;;;;;1.43;0.60;;;9.90;99.90;;;;;;4212533;28;20253;-75
2023/12/25 08:18:34;;;;;;;1.77;0.53;;;9.90;99.90;;;;;;4217103;28;20212;-76
2023/12/25 08:20:36;;;;;;;4.00;0.70;;;9.80;99.90;;;;;;4217919;28;20258;-76
2023/12/25 08:22:38;;;;;;;0.70;0.33;;;9.80;99.90;;;;;;4216631;28;20229;-77
2023/12/25 08:24:41;;;;;;;1.30;0.70;;;9.80;99.90;;;;;;4213321;28;20204;-77
2023/12/25 08:26:43;;;;;;;1.23;0.93;;;9.70;99.90;;;;;;4213735;28;20262;-75
2023/12/25 08:28:46;;;;;;;2.53;1.50;;;9.70;99.90;;;;;;4213924;28;20849;-75
2023/12/25 08:30:48;;;;;;;3.27;1.40;;;9.70;99.90;;;;;;4213381;28;20235;-76
2023/12/25 08:32:50;;;;;;;0.73;0.50;;;9.70;99.90;;;;;;4213798;28;20227;-77
2023/12/25 08:34:52;;;;;;;1.40;1.20;;;9.60;99.90;;;;;;4214193;28;20291;-77
2023/12/25 08:36:53;;;;;;;3.03;1.97;;;9.60;99.90;;;;;;4215388;28;20703;-76
2023/12/25 08:38:55;;;;;;;2.97;1.70;;;9.70;99.90;;;;;;4216507;28;20211;-77
2023/12/25 08:40:58;;;;;;;1.87;1.27;;;9.70;99.90;;;;;;4214300;28;20213;-77
2023/12/25 08:43:00;;;;;;;1.23;0.90;;;9.70;99.90;;;;;;4213560;28;20233;-76
2023/12/25 08:45:02;;;;;;;1.10;0.97;;;9.70;99.90;;;;;;4195447;28;20213;-75
2023/12/25 08:47:05;;;;;;;0.67;0.60;;;9.70;99.90;;;;;;4213700;28;20212;-76
2023/12/25 08:49:08;;;;;;;1.73;1.10;;;9.70;99.90;;;;;;4212443;28;20273;-75
2023/12/25 08:51:10;;;;;;;2.10;0.90;;;9.70;99.90;;;;;;4217992;28;20296;-75
2023/12/25 08:53:12;;;;;;;3.03;1.40;;;9.70;99.90;;;;;;4218110;28;20220;-76
2023/12/25 08:55:14;;;;;;;3.37;1.37;;;9.70;99.90;;;;;;4221637;28;20335;-75
2023/12/25 08:57:17;;;;;;;1.97;1.63;;;9.70;99.90;;;;;;4214347;28;20664;-75
2023/12/25 08:59:19;;;;;;;4.93;1.83;;;9.70;99.90;;;;;;4217099;28;20282;-75
2023/12/25 09:01:24;;;;;;;3.03;1.80;;;9.70;99.90;;;;;;4229588;28;20204;-76
2023/12/25 09:03:26;;;;;;;2.47;1.90;;;9.70;99.90;;;;;;4212740;28;20223;-75
2023/12/25 09:05:28;;;;;;;4.47;2.10;;;9.70;99.90;;;;;;4214216;28;20212;-75
2023/12/25 09:07:29;;;;;;;1.93;1.20;;;9.70;99.90;;;;;;4208275;28;20212;-75
2023/12/25 09:09:31;;;;;;;1.63;1.30;;;9.70;99.90;;;;;;4206355;28;20212;-76
2023/12/25 09:11:33;;;;;;;1.40;0.97;;;9.70;99.90;;;;;;4203973;28;20212;-75
2023/12/25 09:13:36;;;;;;;2.20;1.40;;;9.70;99.90;;;;;;4218269;28;20201;-76
2023/12/25 09:15:38;;;;;;;2.87;1.30;;;9.70;99.90;;;;;;4218789;28;20249;-76
2023/12/25 09:17:43;;;;;;;1.30;1.10;;;9.70;99.90;;;;;;4213719;28;20202;-76
2023/12/25 09:19:43;;;;;;;3.30;1.40;;;9.70;99.90;;;;;;4209922;28;20258;-76
2023/12/25 09:21:45;;;;;;;1.83;1.30;;;9.80;99.90;;;;;;4211136;28;20212;-76
2023/12/25 09:23:46;;;;;;;1.77;1.00;;;9.80;99.90;;;;;;4221824;28;20226;-77
2023/12/25 09:25:48;;;;;;;1.67;1.10;;;9.80;99.90;;;;;;4214547;28;20700;-76
2023/12/25 09:27:50;;;;;;;3.00;1.40;;;9.80;99.90;;;;;;4208707;28;20266;-78
2023/12/25 09:29:53;;;;;;;4.93;2.33;;;9.80;99.90;;;;;;4202576;28;20221;-76
2023/12/25 09:31:54;;;;;;;3.30;1.43;;;9.80;99.90;;;;;;4205689;28;20279;-78
2023/12/25 09:33:56;;;;;;;2.80;1.80;;;9.80;99.90;;;;;;4213290;28;20535;-76
2023/12/25 09:35:58;;;;;;;4.20;1.50;;;9.90;99.90;;;;;;4214210;28;20213;-75
2023/12/25 09:38:00;;;;;;;1.23;0.90;;;9.90;99.90;;;;;;4215668;28;20200;-74
2023/12/25 09:40:02;;;;;;;2.80;0.93;;;9.90;99.90;;;;;;4212414;28;20569;-74
2023/12/25 09:42:04;;;;;;;0.90;0.70;;;9.90;99.90;;;;;;4213746;28;20219;-75
2023/12/25 09:44:07;;;;;;;1.80;0.80;;;9.90;99.90;;;;;;4215848;28;20735;-74
2023/12/25 09:46:10;;;;;;;2.00;1.10;;;9.90;99.90;;;;;;4219048;28;20207;-74
2023/12/25 09:48:12;;;;;;;2.30;0.90;;;9.90;99.90;;;;;;4221632;28;20627;-74
2023/12/25 09:50:15;;;;;;;1.57;0.80;;;9.90;99.90;;;;;;4224198;28;20218;-76
2023/12/25 09:52:17;;;;;;;0.40;0.40;;;9.80;99.90;;;;;;4216114;28;20296;-75
2023/12/25 09:54:19;;;;;;;1.53;0.60;;;9.80;99.90;;;;;;4217197;28;20319;-75
2023/12/25 09:56:22;;;;;;;1.07;0.60;;;9.90;99.90;;;;;;4222787;28;20682;-75
2023/12/25 09:58:25;;;;;;;1.80;0.50;;;9.80;99.90;;;;;;4190897;28;20210;-76
2023/12/25 10:00:27;;;;;;;1.97;0.77;;;9.80;99.90;;;;;;4217663;28;20205;-75
2023/12/25 10:02:34;;;;;;;0.53;0.50;;;9.80;99.90;;;;;;4206547;28;20225;-76
2023/12/25 10:04:42;;;;;;;2.73;0.70;;;9.80;99.90;;;;;;4212508;28;20209;-75
2023/12/25 10:06:43;;;;;;;1.17;0.80;;;9.80;99.90;;;;;;4213496;28;20216;-75
2023/12/25 10:08:45;;;;;;;2.03;1.40;;;9.80;99.90;;;;;;4206466;28;20200;-74
2023/12/25 10:10:47;;;;;;;2.80;1.60;;;9.80;99.90;;;;;;4208968;28;20220;-75
2023/12/25 10:12:49;;;;;;;1.40;0.90;;;9.80;99.90;;;;;;4215784;28;20289;-75
2023/12/25 10:14:51;;;;;;;1.67;1.10;;;9.80;99.90;;;;;;4218395;28;20262;-75
2023/12/25 10:16:57;;;;;;;1.93;0.90;;;9.90;99.90;;;;;;4208126;28;20209;-78
2023/12/25 10:19:00;;;;;;;3.27;0.93;;;9.80;99.90;;;;;;4205735;28;20227;-78
2023/12/25 10:21:02;;;;;;;2.97;0.97;;;9.90;99.90;;;;;;4211790;28;20223;-77
2023/12/25 10:23:11;;;;;;;1.03;0.60;;;9.80;99.90;;;;;;4208256;28;20311;-76
2023/12/25 10:25:13;;;;;;;3.60;0.90;;;9.80;99.90;;;;;;4210935;28;20609;-76
2023/12/25 10:27:15;;;;;;;0.83;0.60;;;9.90;99.90;;;;;;4203344;28;20695;-75
2023/12/25 10:29:17;;;;;;;1.30;0.70;;;9.80;99.90;;;;;;4204561;28;20684;-76
2023/12/25 10:31:27;;;;;;;2.13;0.80;;;9.80;99.90;;;;;;4205656;28;20232;-75
2023/12/25 10:33:29;;;;;;;1.53;0.90;;;9.80;99.90;;;;;;4191326;28;20648;-77
2023/12/25 10:35:32;;;;;;;2.90;1.40;;;9.90;99.90;;;;;;4208721;28;20617;-76
2023/12/25 10:37:35;;;;;;;3.53;0.80;;;9.80;99.90;;;;;;4207382;28;20201;-76
2023/12/25 10:39:40;;;;;;;2.93;0.63;;;9.80;99.90;;;;;;4207771;28;20731;-76